Time;durP1;ratioP1;P1;durP2;ratioP2;P2;SDS_P1;SDS_P2;PMS_P1;PMS_P2;Temp;Humidity;BMP_temperature;BMP_pressure;BME280_temperature;BME280_humidity;BME280_pressure;Samples;Min_cycle;Max_cycle;Signal;HPM_P1;HPM_P2
2021/12/26 00:02:20;;;;;;;0.40;0.40;;;-8.10;99.90;;;;;;5113074;28;20466;-70
2021/12/26 00:05:08;;;;;;;0.50;0.50;;;-8.20;99.90;;;;;;5112588;28;20458;-69
2021/12/26 00:07:55;;;;;;;0.50;0.50;;;-8.20;99.90;;;;;;5112449;28;20446;-69
2021/12/26 00:10:42;;;;;;;0.40;0.40;;;-8.30;99.90;;;;;;5114671;28;20836;-70
2021/12/26 00:13:30;;;;;;;0.40;0.40;;;-8.20;99.90;;;;;;5131408;28;20422;-72
2021/12/26 00:16:18;;;;;;;0.40;0.40;;;-8.20;99.90;;;;;;5135319;28;20444;-70
2021/12/26 00:19:05;;;;;;;0.40;0.40;;;-8.20;99.90;;;;;;5132192;28;20422;-69
2021/12/26 00:21:52;;;;;;;0.40;0.40;;;-8.20;99.90;;;;;;5132212;28;20429;-70
2021/12/26 00:24:39;;;;;;;0.40;0.40;;;-8.20;99.90;;;;;;5122464;28;20458;-70
2021/12/26 00:27:26;;;;;;;0.40;0.40;;;-8.20;99.90;;;;;;5117225;28;20442;-69
2021/12/26 00:30:16;;;;;;;0.60;0.60;;;-8.30;99.90;;;;;;5116599;28;20426;-70
2021/12/26 00:33:04;;;;;;;0.40;0.40;;;-8.20;99.90;;;;;;5116410;28;20504;-72
2021/12/26 00:35:52;;;;;;;0.40;0.40;;;-8.20;99.90;;;;;;5114540;28;20651;-70
2021/12/26 00:38:39;;;;;;;0.50;0.50;;;-8.30;99.90;;;;;;5115374;28;20513;-70
2021/12/26 00:41:26;;;;;;;0.40;0.40;;;-8.30;99.90;;;;;;5113863;28;21006;-70
2021/12/26 00:44:12;;;;;;;0.40;0.40;;;-8.20;99.90;;;;;;5116549;28;20831;-70
2021/12/26 00:46:59;;;;;;;0.40;0.40;;;-8.30;99.90;;;;;;5115623;28;20506;-70
2021/12/26 00:49:48;;;;;;;0.40;0.40;;;-8.30;99.90;;;;;;5115554;28;20450;-69
2021/12/26 00:52:34;;;;;;;0.40;0.40;;;-8.40;99.90;;;;;;5116078;28;20830;-70
2021/12/26 00:55:21;;;;;;;0.50;0.50;;;-8.20;99.90;;;;;;5115470;28;20957;-70
2021/12/26 00:58:09;;;;;;;0.50;0.50;;;-8.30;99.90;;;;;;5115552;28;20442;-69
2021/12/26 01:00:56;;;;;;;0.40;0.40;;;-8.30;99.90;;;;;;5115378;28;20954;-70
2021/12/26 01:03:43;;;;;;;0.40;0.40;;;-8.30;99.90;;;;;;5114611;28;20425;-70
2021/12/26 01:06:32;;;;;;;0.40;0.40;;;-8.30;99.90;;;;;;5114668;28;20775;-70
2021/12/26 01:09:24;;;;;;;0.50;0.50;;;-8.40;99.90;;;;;;5114367;28;20418;-69
2021/12/26 01:12:14;;;;;;;0.40;0.40;;;-8.40;99.90;;;;;;5115105;28;20426;-70
2021/12/26 01:15:06;;;;;;;0.40;0.40;;;-8.50;99.90;;;;;;5115674;28;20422;-70
2021/12/26 01:17:57;;;;;;;0.40;0.40;;;-8.50;99.90;;;;;;5115005;28;20426;-70
2021/12/26 01:20:50;;;;;;;1.53;1.43;;;-8.50;99.90;;;;;;5114857;28;20438;-70
2021/12/26 01:23:38;;;;;;;0.40;0.40;;;-8.50;99.90;;;;;;5114421;28;20927;-69
2021/12/26 01:26:26;;;;;;;0.40;0.40;;;-8.40;99.90;;;;;;5114610;28;20473;-69
2021/12/26 01:29:13;;;;;;;0.47;0.47;;;-8.50;99.90;;;;;;5114783;28;20414;-70
2021/12/26 01:32:00;;;;;;;0.40;0.40;;;-8.50;99.90;;;;;;5114582;28;20418;-69
2021/12/26 01:34:47;;;;;;;0.40;0.40;;;-8.50;99.90;;;;;;5115093;28;20422;-69
2021/12/26 01:37:34;;;;;;;0.40;0.40;;;-8.60;99.90;;;;;;5115229;28;20441;-70
2021/12/26 01:40:23;;;;;;;0.50;0.50;;;-8.60;99.90;;;;;;5112564;28;20430;-70
2021/12/26 01:43:10;;;;;;;0.40;0.40;;;-8.60;99.90;;;;;;5113665;28;20418;-70
2021/12/26 01:45:57;;;;;;;0.40;0.40;;;-8.60;99.90;;;;;;5113715;28;20469;-70
2021/12/26 01:48:45;;;;;;;0.50;0.50;;;-8.60;99.90;;;;;;5114037;28;20422;-69
2021/12/26 01:51:32;;;;;;;0.40;0.40;;;-8.60;99.90;;;;;;5113288;28;20931;-70
2021/12/26 01:54:29;;;;;;;0.40;0.40;;;-8.60;99.90;;;;;;5112991;28;20418;-70
2021/12/26 01:57:19;;;;;;;0.50;0.50;;;-8.60;99.90;;;;;;5114307;28;20445;-70
2021/12/26 02:00:08;;;;;;;0.50;0.50;;;-8.60;99.90;;;;;;5113707;28;20488;-70
2021/12/26 02:02:54;;;;;;;0.40;0.40;;;-8.60;99.90;;;;;;5079249;28;20457;-70
2021/12/26 02:05:42;;;;;;;0.50;0.50;;;-8.70;99.90;;;;;;5092357;28;20463;-70
2021/12/26 02:08:28;;;;;;;0.50;0.50;;;-8.70;99.90;;;;;;5091888;28;20845;-70
2021/12/26 02:11:16;;;;;;;0.40;0.40;;;-8.60;99.90;;;;;;5091994;28;20415;-70
2021/12/26 02:14:04;;;;;;;0.60;0.60;;;-8.70;99.90;;;;;;5090177;28;20422;-70
2021/12/26 02:16:51;;;;;;;0.47;0.47;;;-8.70;99.90;;;;;;5111710;28;20978;-68
2021/12/26 02:19:43;;;;;;;0.43;0.43;;;-8.80;99.90;;;;;;5111163;28;21019;-70
2021/12/26 02:22:32;;;;;;;0.40;0.40;;;-8.80;99.90;;;;;;5113069;28;20418;-70
2021/12/26 02:27:30;;;;;;;0.40;0.40;;;-8.80;99.90;;;;;;5113101;28;20973;-70
2021/12/26 02:28:35;;;;;;;0.50;0.50;;;-8.80;99.90;;;;;;5113023;28;20434;-70
2021/12/26 02:31:22;;;;;;;0.40;0.40;;;-8.90;99.90;;;;;;5112846;28;20426;-70
2021/12/26 02:34:09;;;;;;;5.60;3.50;;;-8.90;99.90;;;;;;5113032;28;20869;-70
2021/12/26 02:36:57;;;;;;;0.40;0.40;;;-9.00;99.90;;;;;;5113268;28;20465;-69
2021/12/26 02:39:44;;;;;;;0.40;0.40;;;-8.90;99.90;;;;;;5113125;28;20487;-70
2021/12/26 02:42:32;;;;;;;0.40;0.40;;;-9.00;99.90;;;;;;5112978;28;20453;-70
2021/12/26 02:45:19;;;;;;;0.40;0.40;;;-9.00;99.90;;;;;;5112568;28;20453;-70
2021/12/26 02:48:08;;;;;;;0.43;0.43;;;-9.00;99.90;;;;;;5112302;28;20780;-70
2021/12/26 02:50:57;;;;;;;0.40;0.40;;;-9.00;99.90;;;;;;5111677;28;20468;-70
2021/12/26 02:53:46;;;;;;;0.50;0.50;;;-9.00;99.90;;;;;;5113060;28;20447;-70
2021/12/26 02:56:34;;;;;;;0.43;0.43;;;-9.00;99.90;;;;;;5112999;28;20864;-70
2021/12/26 02:59:21;;;;;;;0.40;0.40;;;-9.00;99.90;;;;;;5131755;28;20418;-68
2021/12/26 03:02:08;;;;;;;0.40;0.40;;;-9.00;99.90;;;;;;5131340;28;20443;-69
2021/12/26 03:04:54;;;;;;;0.40;0.40;;;-9.10;99.90;;;;;;5130361;28;21047;-70
2021/12/26 03:07:42;;;;;;;0.50;0.50;;;-9.10;99.90;;;;;;5130195;28;20438;-69
2021/12/26 03:10:30;;;;;;;0.50;0.50;;;-9.00;99.90;;;;;;5115715;28;20422;-68
2021/12/26 03:13:17;;;;;;;0.50;0.50;;;-9.10;99.90;;;;;;5113912;28;20831;-70
2021/12/26 03:16:04;;;;;;;0.50;0.50;;;-9.10;99.90;;;;;;5113401;28;20458;-69
2021/12/26 03:18:56;;;;;;;0.53;0.53;;;-9.10;99.90;;;;;;5111217;28;20543;-70
2021/12/26 03:21:43;;;;;;;0.40;0.40;;;-9.10;99.90;;;;;;5111092;28;20440;-72
2021/12/26 03:24:31;;;;;;;0.50;0.50;;;-9.10;99.90;;;;;;5113404;28;20468;-69
2021/12/26 03:27:19;;;;;;;0.40;0.40;;;-9.10;99.90;;;;;;5113416;28;20516;-68
2021/12/26 03:30:07;;;;;;;0.40;0.40;;;-9.10;99.90;;;;;;5111495;28;20509;-68
2021/12/26 03:32:57;;;;;;;0.50;0.50;;;-9.10;99.90;;;;;;5110938;28;21023;-68
2021/12/26 03:35:44;;;;;;;0.47;0.47;;;-9.10;99.90;;;;;;5112598;28;20438;-70
2021/12/26 03:38:33;;;;;;;0.50;0.50;;;-9.10;99.90;;;;;;5111187;28;20422;-69
2021/12/26 03:41:22;;;;;;;0.40;0.40;;;-9.10;99.90;;;;;;5113520;28;21020;-68
2021/12/26 03:44:11;;;;;;;0.40;0.40;;;-9.10;99.90;;;;;;5113421;28;20425;-68
2021/12/26 03:46:57;;;;;;;0.43;0.43;;;-9.10;99.90;;;;;;5114468;28;20603;-68
2021/12/26 03:49:47;;;;;;;0.40;0.40;;;-9.00;99.90;;;;;;5117098;28;20852;-68
2021/12/26 03:52:35;;;;;;;0.40;0.40;;;-9.00;99.90;;;;;;5116657;28;20513;-69
2021/12/26 03:55:22;;;;;;;0.50;0.50;;;-9.00;99.90;;;;;;5116992;28;20467;-68
2021/12/26 03:58:09;;;;;;;0.40;0.40;;;-8.90;99.90;;;;;;5116863;28;20418;-69
2021/12/26 04:00:57;;;;;;;0.40;0.40;;;-8.90;99.90;;;;;;5116618;28;20507;-68
2021/12/26 04:03:44;;;;;;;0.40;0.40;;;-8.90;99.90;;;;;;5116099;28;20421;-68
2021/12/26 04:06:31;;;;;;;0.40;0.40;;;-9.00;99.90;;;;;;5115685;28;20946;-68
2021/12/26 04:09:18;;;;;;;0.50;0.50;;;-9.00;99.90;;;;;;5115573;28;20426;-69
2021/12/26 04:12:06;;;;;;;0.40;0.40;;;-9.00;99.90;;;;;;5116502;28;20486;-69
2021/12/26 04:14:53;;;;;;;0.40;0.40;;;-9.00;99.90;;;;;;5114105;28;20819;-68
2021/12/26 04:17:42;;;;;;;0.43;0.43;;;-9.00;99.90;;;;;;5115023;28;20438;-68
2021/12/26 04:20:30;;;;;;;0.40;0.40;;;-9.10;99.90;;;;;;5114691;28;20515;-68
2021/12/26 04:23:17;;;;;;;0.50;0.50;;;-9.10;99.90;;;;;;5114961;28;20422;-68
2021/12/26 04:26:04;;;;;;;0.50;0.50;;;-9.10;99.90;;;;;;5116264;28;20458;-68
2021/12/26 04:28:51;;;;;;;0.50;0.50;;;-9.10;99.90;;;;;;5119412;28;20510;-68
2021/12/26 04:31:38;;;;;;;0.50;0.50;;;-8.90;99.90;;;;;;5122510;28;20471;-71
2021/12/26 04:34:26;;;;;;;0.40;0.40;;;-9.00;99.90;;;;;;5122242;28;20421;-68
2021/12/26 04:37:13;;;;;;;0.60;0.60;;;-9.00;99.90;;;;;;5117125;28;20470;-68
2021/12/26 04:40:00;;;;;;;0.50;0.50;;;-9.00;99.90;;;;;;5116004;28;20507;-69
2021/12/26 04:42:47;;;;;;;0.43;0.43;;;-9.10;99.90;;;;;;5116865;28;20480;-68
2021/12/26 04:45:34;;;;;;;0.40;0.40;;;-9.10;99.90;;;;;;5115647;28;20442;-70
2021/12/26 04:48:21;;;;;;;0.40;0.40;;;-9.10;99.90;;;;;;5116800;28;20425;-68
2021/12/26 04:51:11;;;;;;;0.40;0.40;;;-9.20;99.90;;;;;;5118227;28;20418;-69
2021/12/26 04:53:58;;;;;;;0.60;0.60;;;-9.20;99.90;;;;;;5116744;28;20414;-69
2021/12/26 04:56:45;;;;;;;0.47;0.47;;;-9.20;99.90;;;;;;5119627;28;20821;-68
2021/12/26 04:59:32;;;;;;;0.40;0.40;;;-9.30;99.90;;;;;;5115348;28;20511;-68
2021/12/26 05:02:19;;;;;;;0.50;0.50;;;-9.30;99.90;;;;;;5114443;28;20426;-68
2021/12/26 05:05:07;;;;;;;2.00;1.90;;;-9.30;99.90;;;;;;5115751;28;20418;-68
2021/12/26 05:07:56;;;;;;;0.47;0.47;;;-9.30;99.90;;;;;;5115698;28;20546;-68
2021/12/26 05:10:43;;;;;;;0.50;0.50;;;-9.30;99.90;;;;;;5115028;28;20447;-69
2021/12/26 05:13:30;;;;;;;0.43;0.43;;;-9.30;99.90;;;;;;5115431;28;20430;-69
2021/12/26 05:16:17;;;;;;;0.40;0.40;;;-9.30;99.90;;;;;;5115313;28;20931;-69
2021/12/26 05:19:04;;;;;;;0.40;0.40;;;-9.20;99.90;;;;;;5114942;28;20491;-69
2021/12/26 05:21:51;;;;;;;0.40;0.40;;;-9.30;99.90;;;;;;5115726;28;20769;-70
2021/12/26 05:24:40;;;;;;;0.40;0.40;;;-9.30;99.90;;;;;;5118922;28;20426;-69
2021/12/26 05:27:27;;;;;;;0.50;0.50;;;-9.20;99.90;;;;;;5116017;28;20976;-68
2021/12/26 05:30:15;;;;;;;0.50;0.50;;;-9.20;99.90;;;;;;5115002;28;20484;-69
2021/12/26 05:33:02;;;;;;;0.40;0.40;;;-9.20;99.90;;;;;;5123690;28;21085;-69
2021/12/26 05:35:49;;;;;;;0.40;0.40;;;-9.20;99.90;;;;;;5112906;28;20550;-69
2021/12/26 05:38:36;;;;;;;0.40;0.40;;;-9.20;99.90;;;;;;5115368;28;20851;-69
2021/12/26 05:41:24;;;;;;;0.50;0.50;;;-9.30;99.90;;;;;;5128030;28;20451;-69
2021/12/26 05:44:11;;;;;;;0.40;0.40;;;-9.30;99.90;;;;;;5132531;28;20503;-68
2021/12/26 05:46:59;;;;;;;0.50;0.50;;;-9.30;99.90;;;;;;5128742;28;20469;-68
2021/12/26 05:49:45;;;;;;;0.40;0.40;;;-9.30;99.90;;;;;;5126280;28;20455;-69
2021/12/26 05:52:32;;;;;;;3.10;3.00;;;-9.40;99.90;;;;;;5122057;28;20426;-68
2021/12/26 05:55:19;;;;;;;0.50;0.50;;;-9.40;99.90;;;;;;5120731;28;20783;-68
2021/12/26 05:58:07;;;;;;;0.50;0.50;;;-9.40;99.90;;;;;;5115060;28;20485;-69
2021/12/26 06:00:54;;;;;;;0.40;0.40;;;-9.30;99.90;;;;;;5114526;28;20475;-69
2021/12/26 06:03:42;;;;;;;0.40;0.40;;;-9.30;99.90;;;;;;5121979;28;20418;-68
2021/12/26 06:06:29;;;;;;;0.40;0.40;;;-9.40;99.90;;;;;;5122499;28;20514;-70
2021/12/26 06:09:15;;;;;;;0.40;0.40;;;-9.30;99.90;;;;;;5124360;28;20422;-69
2021/12/26 06:12:03;;;;;;;0.40;0.40;;;-9.30;99.90;;;;;;5125683;28;20429;-68
2021/12/26 06:14:51;;;;;;;0.40;0.40;;;-9.30;99.90;;;;;;5126729;28;20437;-69
2021/12/26 06:17:38;;;;;;;0.40;0.40;;;-9.30;99.90;;;;;;5126576;28;20450;-68
2021/12/26 06:20:25;;;;;;;0.40;0.40;;;-9.30;99.90;;;;;;5126487;28;20418;-69
2021/12/26 06:23:12;;;;;;;0.50;0.50;;;-9.20;99.90;;;;;;5127605;28;20479;-68
2021/12/26 06:25:59;;;;;;;0.50;0.50;;;-9.20;99.90;;;;;;5127597;28;20444;-69
2021/12/26 06:28:46;;;;;;;0.53;0.53;;;-9.30;99.90;;;;;;5128199;28;20422;-69
2021/12/26 06:31:35;;;;;;;0.40;0.40;;;-9.20;99.90;;;;;;5127131;28;20451;-68
2021/12/26 06:34:22;;;;;;;0.40;0.40;;;-9.20;99.90;;;;;;5128323;28;20438;-70
2021/12/26 06:37:08;;;;;;;0.40;0.40;;;-9.20;99.90;;;;;;5126954;28;20446;-68
2021/12/26 06:39:55;;;;;;;0.40;0.40;;;-9.20;99.90;;;;;;5115346;28;20462;-68
2021/12/26 06:42:45;;;;;;;0.40;0.40;;;-9.20;99.90;;;;;;5112106;28;20475;-68
2021/12/26 06:45:31;;;;;;;0.40;0.40;;;-9.30;99.90;;;;;;5113863;28;20438;-68
2021/12/26 06:48:20;;;;;;;0.40;0.40;;;-9.20;99.90;;;;;;5113384;28;20464;-68
2021/12/26 06:51:07;;;;;;;0.40;0.40;;;-9.20;99.90;;;;;;5113508;28;20433;-68
2021/12/26 06:53:54;;;;;;;0.50;0.50;;;-9.30;99.90;;;;;;5113114;28;20776;-68
2021/12/26 06:56:41;;;;;;;0.40;0.40;;;-9.30;99.90;;;;;;5113283;28;20430;-68
2021/12/26 06:59:28;;;;;;;0.43;0.43;;;-9.30;99.90;;;;;;5112553;28;20867;-67
2021/12/26 07:02:15;;;;;;;0.40;0.40;;;-9.30;99.90;;;;;;5113011;28;20442;-69
2021/12/26 07:05:04;;;;;;;0.43;0.43;;;-9.40;99.90;;;;;;5113863;28;20837;-68
2021/12/26 07:07:51;;;;;;;0.50;0.50;;;-9.40;99.90;;;;;;5113699;28;20884;-68
2021/12/26 07:10:38;;;;;;;0.60;0.60;;;-9.40;99.90;;;;;;5113722;28;20446;-68
2021/12/26 07:13:25;;;;;;;0.40;0.40;;;-9.40;99.90;;;;;;5113419;28;20507;-68
2021/12/26 07:16:11;;;;;;;0.50;0.50;;;-9.30;99.90;;;;;;5113326;28;20523;-68
2021/12/26 07:18:58;;;;;;;0.50;0.50;;;-9.30;99.90;;;;;;5114143;28;20436;-68
2021/12/26 07:21:47;;;;;;;0.50;0.50;;;-9.40;99.90;;;;;;5118257;28;20418;-69
2021/12/26 07:24:33;;;;;;;0.50;0.50;;;-9.40;99.90;;;;;;5117667;28;20422;-68
2021/12/26 07:27:20;;;;;;;0.40;0.40;;;-9.30;99.90;;;;;;5117348;28;20469;-68
2021/12/26 07:30:09;;;;;;;0.40;0.40;;;-9.40;99.90;;;;;;5117453;28;20429;-68
2021/12/26 07:32:56;;;;;;;0.50;0.50;;;-9.30;99.90;;;;;;5117605;28;20425;-68
2021/12/26 07:35:43;;;;;;;0.50;0.50;;;-9.20;99.90;;;;;;5118118;28;20453;-68
2021/12/26 07:38:31;;;;;;;0.50;0.50;;;-9.10;99.90;;;;;;5117662;28;20446;-68
2021/12/26 07:41:18;;;;;;;0.43;0.43;;;-9.10;99.90;;;;;;5117128;28;20502;-69
2021/12/26 07:44:05;;;;;;;0.50;0.50;;;-9.10;99.90;;;;;;5118294;28;20426;-68
2021/12/26 07:46:52;;;;;;;0.40;0.40;;;-9.10;99.90;;;;;;5117875;28;21022;-68
2021/12/26 07:49:39;;;;;;;0.50;0.50;;;-9.10;99.90;;;;;;5118098;28;20429;-67
2021/12/26 07:52:31;;;;;;;0.40;0.40;;;-9.00;99.90;;;;;;5118312;28;20422;-70
2021/12/26 07:55:20;;;;;;;0.40;0.40;;;-8.80;99.90;;;;;;5117679;28;20421;-70
2021/12/26 07:58:07;;;;;;;0.40;0.40;;;-9.00;99.90;;;;;;5117294;28;20426;-68
2021/12/26 08:00:54;;;;;;;0.40;0.40;;;-9.00;99.90;;;;;;5117559;28;20807;-69
2021/12/26 08:03:41;;;;;;;0.40;0.40;;;-8.90;99.90;;;;;;5116360;28;20450;-69
2021/12/26 08:06:28;;;;;;;0.40;0.40;;;-8.90;99.90;;;;;;5115822;28;20502;-68
2021/12/26 08:09:15;;;;;;;0.40;0.40;;;-8.70;99.90;;;;;;5116938;28;20429;-71
2021/12/26 08:12:03;;;;;;;0.40;0.40;;;-8.60;99.90;;;;;;5116322;28;20452;-69
2021/12/26 08:14:50;;;;;;;0.50;0.50;;;-8.60;99.90;;;;;;5115997;28;20951;-68
2021/12/26 08:17:38;;;;;;;0.40;0.40;;;-8.50;99.90;;;;;;5116140;28;20521;-69
2021/12/26 08:20:25;;;;;;;0.43;0.43;;;-8.50;99.90;;;;;;5116648;28;20421;-69
2021/12/26 08:23:12;;;;;;;0.43;0.43;;;-8.40;99.90;;;;;;5122773;28;20418;-69
2021/12/26 08:25:59;;;;;;;0.40;0.40;;;-8.40;99.90;;;;;;5128397;28;20435;-69
2021/12/26 08:28:48;;;;;;;0.50;0.50;;;-8.40;99.90;;;;;;5130750;28;20477;-69
2021/12/26 08:31:35;;;;;;;0.50;0.50;;;-8.30;99.90;;;;;;5131568;28;20452;-70
2021/12/26 08:34:22;;;;;;;0.50;0.50;;;-8.30;99.90;;;;;;5130344;28;20944;-69
2021/12/26 08:37:10;;;;;;;0.40;0.40;;;-8.20;99.90;;;;;;5118643;28;20438;-69
2021/12/26 08:39:57;;;;;;;0.50;0.50;;;-8.20;99.90;;;;;;5116839;28;20775;-68
2021/12/26 08:42:44;;;;;;;0.40;0.40;;;-8.10;99.90;;;;;;5114859;28;20482;-68
2021/12/26 08:45:32;;;;;;;0.40;0.40;;;-8.10;99.90;;;;;;5115807;28;20434;-69
2021/12/26 08:48:19;;;;;;;0.50;0.50;;;-8.00;99.90;;;;;;5114689;28;20529;-69
2021/12/26 08:51:06;;;;;;;0.40;0.40;;;-7.90;99.90;;;;;;5116174;28;20426;-68
2021/12/26 08:53:53;;;;;;;0.40;0.40;;;-7.90;99.90;;;;;;5115873;28;20843;-69
2021/12/26 08:56:40;;;;;;;0.40;0.40;;;-7.80;99.90;;;;;;5115986;28;20470;-68
2021/12/26 08:59:30;;;;;;;0.50;0.50;;;-7.70;99.90;;;;;;5115196;28;20467;-69
2021/12/26 09:02:18;;;;;;;0.40;0.40;;;-7.60;99.90;;;;;;5115818;28;20430;-70
2021/12/26 09:05:06;;;;;;;0.50;0.50;;;-7.50;99.90;;;;;;5115111;28;20432;-70
2021/12/26 09:07:53;;;;;;;0.40;0.40;;;-7.60;99.90;;;;;;5114489;28;20500;-70
2021/12/26 09:10:40;;;;;;;0.47;0.47;;;-7.40;99.90;;;;;;5116584;28;20430;-70
2021/12/26 09:13:27;;;;;;;0.40;0.40;;;-7.30;99.90;;;;;;5114209;28;20430;-70
2021/12/26 09:16:15;;;;;;;0.47;0.47;;;-7.10;99.90;;;;;;5116356;28;20442;-70
2021/12/26 09:19:05;;;;;;;0.43;0.43;;;-7.20;99.90;;;;;;5116384;28;20461;-72
2021/12/26 09:21:52;;;;;;;0.40;0.40;;;-7.10;99.90;;;;;;5115939;28;20422;-70
2021/12/26 09:24:39;;;;;;;0.40;0.40;;;-7.10;99.90;;;;;;5114656;28;20478;-70
2021/12/26 09:27:26;;;;;;;0.40;0.40;;;-7.00;99.90;;;;;;5116301;28;20470;-70
2021/12/26 09:30:14;;;;;;;0.40;0.40;;;-7.00;99.90;;;;;;5116948;28;20931;-70
2021/12/26 09:33:01;;;;;;;0.40;0.40;;;-7.00;99.90;;;;;;5114800;28;20422;-70
2021/12/26 09:35:50;;;;;;;0.50;0.50;;;-7.00;99.90;;;;;;5116167;28;20441;-68
2021/12/26 09:38:38;;;;;;;0.50;0.50;;;-6.90;99.90;;;;;;5116290;28;20464;-70
2021/12/26 09:41:25;;;;;;;0.40;0.40;;;-6.90;99.90;;;;;;5116780;28;20422;-70
2021/12/26 09:44:12;;;;;;;0.40;0.40;;;-6.80;99.90;;;;;;5116726;28;20494;-70
2021/12/26 09:46:59;;;;;;;0.40;0.40;;;-6.80;99.90;;;;;;5116247;28;20546;-70
2021/12/26 09:49:45;;;;;;;0.50;0.50;;;-6.70;99.90;;;;;;5114149;28;20422;-70
2021/12/26 09:52:34;;;;;;;0.50;0.50;;;-6.60;99.90;;;;;;5115890;28;20783;-70
2021/12/26 09:55:21;;;;;;;0.50;0.50;;;-6.60;99.90;;;;;;5130809;28;20418;-71
2021/12/26 09:58:08;;;;;;;0.50;0.50;;;-6.60;99.90;;;;;;5132957;28;20418;-69
2021/12/26 10:00:55;;;;;;;0.50;0.50;;;-6.60;99.90;;;;;;5131256;28;20418;-70
2021/12/26 10:03:42;;;;;;;0.40;0.40;;;-6.50;99.90;;;;;;5127978;28;20422;-70
2021/12/26 10:06:33;;;;;;;0.40;0.40;;;-6.50;99.90;;;;;;5110681;28;20473;-70
2021/12/26 10:09:21;;;;;;;0.77;0.77;;;-6.50;99.90;;;;;;5095116;28;20469;-70
2021/12/26 10:12:12;;;;;;;0.40;0.40;;;-6.40;99.90;;;;;;5094397;28;20423;-70
2021/12/26 10:14:59;;;;;;;0.40;0.40;;;-6.40;99.90;;;;;;5093351;28;20430;-70
2021/12/26 10:17:46;;;;;;;0.40;0.40;;;-6.30;99.90;;;;;;5093641;28;21008;-70
2021/12/26 10:20:35;;;;;;;0.40;0.40;;;-6.30;99.90;;;;;;5093573;28;20426;-70
2021/12/26 10:23:26;;;;;;;0.50;0.50;;;-6.20;99.90;;;;;;5094370;28;20431;-70
2021/12/26 10:26:20;;;;;;;0.40;0.40;;;-6.10;99.90;;;;;;5092858;28;20447;-72
2021/12/26 10:29:20;;;;;;;0.40;0.40;;;-6.10;99.90;;;;;;5094293;28;20983;-69
2021/12/26 10:32:10;;;;;;;0.50;0.50;;;-6.00;99.90;;;;;;5093054;28;20477;-69
2021/12/26 10:34:58;;;;;;;0.50;0.50;;;-6.00;99.90;;;;;;5093885;28;20434;-70
2021/12/26 10:37:48;;;;;;;0.40;0.40;;;-6.00;99.90;;;;;;5093101;28;20504;-70
2021/12/26 10:40:35;;;;;;;0.50;0.50;;;-5.90;99.90;;;;;;5093830;28;20816;-70
2021/12/26 10:43:23;;;;;;;0.40;0.40;;;-5.80;99.90;;;;;;5093153;28;20468;-70
2021/12/26 10:46:15;;;;;;;0.50;0.50;;;-5.80;99.90;;;;;;5092855;28;20982;-69
2021/12/26 10:49:30;;;;;;;0.40;0.40;;;-5.70;99.90;;;;;;5093873;28;20462;-70
2021/12/26 10:52:22;;;;;;;0.40;0.40;;;-5.60;99.90;;;;;;5093566;28;20476;-70
2021/12/26 10:55:11;;;;;;;0.40;0.40;;;-5.60;99.90;;;;;;5091718;28;20423;-70
2021/12/26 10:58:02;;;;;;;0.50;0.50;;;-5.60;99.90;;;;;;5092928;28;20448;-69
2021/12/26 11:00:53;;;;;;;0.40;0.40;;;-5.40;99.90;;;;;;5097132;28;20422;-69
2021/12/26 11:03:40;;;;;;;0.40;0.40;;;-5.40;99.90;;;;;;5114794;28;20417;-70
2021/12/26 11:06:27;;;;;;;0.50;0.50;;;-5.30;99.90;;;;;;5114114;28;20970;-69
2021/12/26 11:09:18;;;;;;;0.40;0.40;;;-5.40;99.90;;;;;;5113070;28;20877;-70
2021/12/26 11:12:07;;;;;;;0.50;0.50;;;-5.30;99.90;;;;;;5113597;28;20929;-70
2021/12/26 11:14:59;;;;;;;0.40;0.40;;;-5.30;99.90;;;;;;5113700;28;20462;-69
2021/12/26 11:17:50;;;;;;;0.40;0.40;;;-5.20;99.90;;;;;;5114384;28;20459;-70
2021/12/26 11:20:38;;;;;;;0.47;0.47;;;-5.20;99.90;;;;;;5114046;28;20847;-70
2021/12/26 11:23:28;;;;;;;0.50;0.50;;;-5.10;99.90;;;;;;5114109;28;20418;-69
2021/12/26 11:26:18;;;;;;;0.40;0.40;;;-5.00;99.90;;;;;;5113626;28;20465;-69
2021/12/26 11:29:05;;;;;;;0.50;0.50;;;-5.10;99.90;;;;;;5113999;28;20465;-70
2021/12/26 11:31:54;;;;;;;0.40;0.40;;;-5.00;99.90;;;;;;5114205;28;20422;-70
2021/12/26 11:34:45;;;;;;;0.40;0.40;;;-5.00;99.90;;;;;;5113665;28;20429;-70
2021/12/26 11:37:33;;;;;;;0.40;0.40;;;-5.00;99.90;;;;;;5112067;28;20445;-70
2021/12/26 11:40:20;;;;;;;1.50;1.50;;;-5.00;99.90;;;;;;5118753;28;20443;-69
2021/12/26 11:43:23;;;;;;;0.50;0.50;;;-4.90;99.90;;;;;;5120526;28;20422;-71
2021/12/26 11:46:17;;;;;;;0.40;0.40;;;-4.90;99.90;;;;;;5124932;28;20480;-68
2021/12/26 11:49:35;;;;;;;0.40;0.40;;;-4.90;99.90;;;;;;5121836;28;20884;-68
2021/12/26 11:52:41;;;;;;;0.50;0.50;;;-4.80;99.90;;;;;;5121111;28;20464;-68
2021/12/26 11:55:38;;;;;;;0.50;0.50;;;-4.80;99.90;;;;;;5114487;28;20475;-68
2021/12/26 11:58:41;;;;;;;0.40;0.40;;;-4.80;99.90;;;;;;5114064;28;20419;-68
2021/12/26 12:01:30;;;;;;;0.40;0.40;;;-4.70;99.90;;;;;;5113863;28;20421;-69
2021/12/26 12:04:20;;;;;;;0.50;0.50;;;-4.70;99.90;;;;;;5113632;28;20452;-69
2021/12/26 12:07:08;;;;;;;0.50;0.50;;;-4.70;99.90;;;;;;5115571;28;20452;-68
2021/12/26 12:09:57;;;;;;;0.40;0.40;;;-4.60;99.90;;;;;;5116569;28;20519;-68
2021/12/26 12:12:43;;;;;;;0.40;0.40;;;-4.70;99.90;;;;;;5115584;28;20429;-69
2021/12/26 12:15:46;;;;;;;0.40;0.40;;;-4.60;99.90;;;;;;5116827;28;20425;-70
2021/12/26 12:18:35;;;;;;;0.50;0.50;;;-4.60;99.90;;;;;;5116588;28;20868;-69
2021/12/26 12:21:24;;;;;;;0.40;0.40;;;-4.60;99.90;;;;;;5116054;28;20514;-69
2021/12/26 12:24:13;;;;;;;0.40;0.40;;;-4.40;99.90;;;;;;5116941;28;20419;-69
2021/12/26 12:27:09;;;;;;;0.50;0.50;;;-4.40;99.90;;;;;;5115316;28;20821;-70
2021/12/26 12:29:55;;;;;;;0.40;0.40;;;-4.40;99.90;;;;;;5117090;28;20469;-69
2021/12/26 12:32:42;;;;;;;0.40;0.40;;;-4.40;99.90;;;;;;5116735;28;20426;-70
2021/12/26 12:35:55;;;;;;;0.50;0.50;;;-4.40;99.90;;;;;;5116883;28;20834;-70
2021/12/26 12:38:44;;;;;;;0.40;0.40;;;-4.40;99.90;;;;;;5115080;28;20414;-69
2021/12/26 12:41:38;;;;;;;0.40;0.40;;;-4.30;99.90;;;;;;5116607;28;20445;-70
2021/12/26 12:44:30;;;;;;;0.40;0.40;;;-4.20;99.90;;;;;;5114829;28;20446;-70
2021/12/26 12:47:24;;;;;;;0.47;0.47;;;-4.20;99.90;;;;;;5114622;28;20515;-70
2021/12/26 12:50:11;;;;;;;0.43;0.43;;;-4.20;99.90;;;;;;5115368;28;20466;-70
2021/12/26 12:52:59;;;;;;;0.50;0.50;;;-4.30;99.90;;;;;;5116189;28;20419;-71
2021/12/26 12:55:51;;;;;;;0.40;0.40;;;-4.20;99.90;;;;;;5115208;28;20817;-68
2021/12/26 12:58:38;;;;;;;0.47;0.47;;;-4.20;99.90;;;;;;5115458;28;20437;-69
2021/12/26 13:01:38;;;;;;;0.50;0.50;;;-4.20;99.90;;;;;;5116128;28;20778;-68
2021/12/26 13:04:28;;;;;;;0.50;0.50;;;-4.20;99.90;;;;;;5116906;28;20524;-69
2021/12/26 13:07:17;;;;;;;0.40;0.40;;;-4.10;99.90;;;;;;5117190;28;20438;-68
2021/12/26 13:10:10;;;;;;;0.43;0.43;;;-4.10;99.90;;;;;;5117314;28;20549;-68
2021/12/26 13:13:04;;;;;;;0.40;0.40;;;-4.10;99.90;;;;;;5115780;28;20422;-69
2021/12/26 13:15:58;;;;;;;0.50;0.50;;;-4.10;99.90;;;;;;5117190;28;20475;-68
2021/12/26 13:18:46;;;;;;;0.53;0.53;;;-4.00;99.90;;;;;;5115721;28;20415;-69
2021/12/26 13:21:33;;;;;;;0.43;0.43;;;-4.00;99.90;;;;;;5116416;28;20480;-69
2021/12/26 13:24:28;;;;;;;0.40;0.40;;;-4.00;99.90;;;;;;5116716;28;20829;-69
2021/12/26 13:27:23;;;;;;;0.50;0.50;;;-3.80;99.90;;;;;;5115648;28;20503;-69
2021/12/26 13:30:10;;;;;;;0.40;0.40;;;-3.70;99.90;;;;;;5116184;28;20462;-70
2021/12/26 13:32:58;;;;;;;0.50;0.50;;;-3.70;99.90;;;;;;5116156;28;20426;-70
2021/12/26 13:35:47;;;;;;;0.50;0.50;;;-3.60;99.90;;;;;;5116300;28;20477;-70
2021/12/26 13:38:34;;;;;;;0.50;0.50;;;-3.50;99.90;;;;;;5113494;28;20530;-69
2021/12/26 13:41:23;;;;;;;0.50;0.50;;;-3.30;99.90;;;;;;5115814;28;20486;-69
2021/12/26 13:44:10;;;;;;;0.40;0.40;;;-3.10;99.90;;;;;;5116045;28;20422;-69
2021/12/26 13:46:59;;;;;;;0.50;0.50;;;-2.80;99.90;;;;;;5115362;28;20811;-69
2021/12/26 13:49:46;;;;;;;0.40;0.40;;;-2.60;99.90;;;;;;5115507;28;20457;-70
2021/12/26 13:52:34;;;;;;;0.40;0.40;;;-2.30;99.90;;;;;;5112997;28;20426;-70
2021/12/26 13:55:21;;;;;;;0.40;0.40;;;-1.90;99.90;;;;;;5119520;28;20418;-70
2021/12/26 13:58:10;;;;;;;0.40;0.40;;;-1.70;99.90;;;;;;5123924;28;20430;-71
2021/12/26 14:00:59;;;;;;;0.47;0.47;;;-1.80;99.90;;;;;;5131411;28;20467;-72
2021/12/26 14:03:47;;;;;;;0.50;0.50;;;-2.10;99.90;;;;;;5131827;28;20443;-70
2021/12/26 14:06:34;;;;;;;0.40;0.40;;;-2.50;99.90;;;;;;5130956;28;21043;-70
2021/12/26 14:09:22;;;;;;;0.40;0.40;;;-2.90;99.90;;;;;;5115827;28;20485;-70
2021/12/26 14:12:26;;;;;;;0.40;0.40;;;-3.20;99.90;;;;;;5115549;28;20513;-69
2021/12/26 14:15:21;;;;;;;0.50;0.50;;;-3.20;99.90;;;;;;5114577;28;20418;-69
2021/12/26 14:18:11;;;;;;;0.50;0.50;;;-3.50;99.90;;;;;;5113686;28;20418;-72
2021/12/26 14:21:01;;;;;;;0.40;0.40;;;-3.70;99.90;;;;;;5114708;28;20487;-70
2021/12/26 14:23:51;;;;;;;0.40;0.40;;;-3.90;99.90;;;;;;5114403;28;20471;-69
2021/12/26 14:26:40;;;;;;;0.40;0.40;;;-4.00;99.90;;;;;;5113322;28;20525;-69
2021/12/26 14:29:27;;;;;;;0.50;0.50;;;-4.00;99.90;;;;;;5113161;28;20572;-69
2021/12/26 14:32:14;;;;;;;0.50;0.50;;;-4.10;99.90;;;;;;5114331;28;20426;-69
2021/12/26 14:35:01;;;;;;;0.40;0.40;;;-4.20;99.90;;;;;;5114463;28;20426;-70
2021/12/26 14:37:48;;;;;;;0.40;0.40;;;-4.30;99.90;;;;;;5114667;28;20429;-69
2021/12/26 14:40:35;;;;;;;0.40;0.40;;;-4.40;99.90;;;;;;5114392;28;20414;-70